createdAt,value
2022-09-29T00:00:27.805Z,1.10
2022-09-29T00:02:54.810Z,1.10
2022-09-29T00:05:22.214Z,1.10
2022-09-29T00:07:49.089Z,1.20
2022-09-29T00:10:16.165Z,1.20
2022-09-29T00:12:43.007Z,1.20
2022-09-29T00:15:10.346Z,0.90
2022-09-29T00:17:37.331Z,1.10
2022-09-29T00:20:04.918Z,1.10
2022-09-29T00:22:31.821Z,1.10
2022-09-29T00:24:58.651Z,1.10
2022-09-29T00:27:26.425Z,1.23
2022-09-29T00:29:53.332Z,1.17
2022-09-29T00:32:20.135Z,1.00
2022-09-29T00:34:47.088Z,1.08
2022-09-29T00:37:14.617Z,1.20
2022-09-29T00:39:41.456Z,1.13
2022-09-29T00:42:12.758Z,1.20
2022-09-29T00:45:07.394Z,1.27
2022-09-29T00:47:37.392Z,1.25
2022-09-29T00:50:14.246Z,1.23
2022-09-29T00:52:56.172Z,1.17
2022-09-29T00:55:32.159Z,1.10
2022-09-29T00:58:28.992Z,1.20
2022-09-29T01:00:55.993Z,1.10
2022-09-29T01:03:26.976Z,1.38
2022-09-29T01:06:02.133Z,1.30
2022-09-29T01:09:15.430Z,1.27
2022-09-29T01:11:43.041Z,1.20
2022-09-29T01:14:11.151Z,1.40
2022-09-29T01:16:40.144Z,1.65
2022-09-29T01:19:11.595Z,1.60
2022-09-29T01:21:45.219Z,1.50
2022-09-29T01:24:49.021Z,1.10
2022-09-29T01:27:40.372Z,1.45
2022-09-29T01:33:20.233Z,1.67
2022-09-29T01:36:08.670Z,1.90
2022-09-29T01:38:45.117Z,1.60
2022-09-29T01:41:40.745Z,1.55
2022-09-29T01:44:14.746Z,1.90
2022-09-29T01:46:48.803Z,1.70
2022-09-29T01:49:18.037Z,1.50
2022-09-29T01:52:11.665Z,1.77
2022-09-29T01:55:24.532Z,1.77
2022-09-29T01:57:55.048Z,1.52
2022-09-29T02:00:24.239Z,1.48
2022-09-29T02:02:56.725Z,1.75
2022-09-29T02:05:31.979Z,1.55
2022-09-29T02:08:19.975Z,1.45
2022-09-29T02:10:59.724Z,1.50
2022-09-29T02:13:27.583Z,1.80
2022-09-29T02:15:56.900Z,1.83
2022-09-29T02:18:30.373Z,1.45
2022-09-29T02:20:57.439Z,1.52
2022-09-29T02:23:24.322Z,1.70
2022-09-29T02:25:52.664Z,1.70
2022-09-29T02:28:19.732Z,1.80
2022-09-29T02:30:47.079Z,1.88
2022-09-29T02:33:25.753Z,1.80
2022-09-29T02:36:07.696Z,1.50
2022-09-29T02:39:01.365Z,1.65
2022-09-29T02:41:46.828Z,2.30
2022-09-29T02:44:16.679Z,1.73
2022-09-29T02:46:57.898Z,1.63
2022-09-29T02:49:33.824Z,1.65
2022-09-29T02:52:16.927Z,1.83
2022-09-29T02:55:19.631Z,1.58
2022-09-29T02:57:46.399Z,1.70
2022-09-29T03:00:18.613Z,1.77
2022-09-29T03:02:45.841Z,1.70
2022-09-29T03:05:16.499Z,1.90
2022-09-29T03:07:44.009Z,1.80
2022-09-29T03:10:12.375Z,1.67
2022-09-29T03:12:39.565Z,1.90
2022-09-29T03:15:08.000Z,1.50
2022-09-29T03:17:35.315Z,1.50
2022-09-29T03:20:02.628Z,2.15
2022-09-29T03:22:29.542Z,1.80
2022-09-29T03:24:56.363Z,1.55
2022-09-29T03:27:23.297Z,1.60
2022-09-29T03:29:50.795Z,1.70
2022-09-29T03:32:18.183Z,1.70
2022-09-29T03:34:45.082Z,1.58
2022-09-29T03:37:12.012Z,1.60
2022-09-29T03:39:38.819Z,1.67
2022-09-29T03:42:05.752Z,1.70
2022-09-29T03:44:32.607Z,1.65
2022-09-29T03:46:59.519Z,1.70
2022-09-29T03:49:26.348Z,1.88
2022-09-29T03:51:53.259Z,1.63
2022-09-29T03:54:20.142Z,1.77
2022-09-29T03:56:46.929Z,1.63
2022-09-29T03:59:15.366Z,1.45
2022-09-29T04:01:42.253Z,1.60
2022-09-29T04:04:09.955Z,1.60
2022-09-29T04:06:36.989Z,1.63
2022-09-29T04:09:04.344Z,1.60
2022-09-29T04:11:31.738Z,1.60
2022-09-29T04:13:58.625Z,1.70
2022-09-29T04:16:25.710Z,1.60
2022-09-29T04:18:52.718Z,1.48
2022-09-29T04:21:19.589Z,1.40
2022-09-29T04:23:47.011Z,1.67
2022-09-29T04:26:14.038Z,1.60
2022-09-29T04:28:41.065Z,1.40
2022-09-29T04:31:08.895Z,1.58
2022-09-29T04:33:35.886Z,1.40
2022-09-29T04:36:03.164Z,1.48
2022-09-29T04:38:30.105Z,1.42
2022-09-29T04:40:57.327Z,1.40
2022-09-29T04:43:24.582Z,1.90
2022-09-29T04:45:51.546Z,1.67
2022-09-29T04:48:18.435Z,1.42
2022-09-29T04:50:45.435Z,1.73
2022-09-29T04:53:12.573Z,1.50
2022-09-29T04:55:39.478Z,1.63
2022-09-29T04:58:06.495Z,1.50
2022-09-29T05:00:33.541Z,1.70
2022-09-29T05:03:01.113Z,1.65
2022-09-29T05:05:28.203Z,2.00
2022-09-29T05:07:55.210Z,1.88
2022-09-29T05:10:22.044Z,1.60
2022-09-29T05:12:52.349Z,1.52
2022-09-29T05:15:24.856Z,2.00
2022-09-29T05:17:52.669Z,1.60
2022-09-29T05:20:19.711Z,2.08
2022-09-29T05:22:46.767Z,2.13
2022-09-29T05:25:13.650Z,1.70
2022-09-29T05:27:40.557Z,2.50
2022-09-29T05:30:07.824Z,1.83
2022-09-29T05:32:34.717Z,2.25
2022-09-29T05:35:01.636Z,1.98
2022-09-29T05:37:28.573Z,1.92
2022-09-29T05:39:55.429Z,1.58
2022-09-29T05:42:22.517Z,1.70
2022-09-29T05:44:49.388Z,1.77
2022-09-29T05:47:16.377Z,1.70
2022-09-29T05:49:43.325Z,1.58
2022-09-29T05:52:10.297Z,1.50
2022-09-29T05:54:37.213Z,1.40
2022-09-29T05:57:04.149Z,1.60
2022-09-29T05:59:30.997Z,1.40
2022-09-29T06:01:58.044Z,1.45
2022-09-29T06:04:25.014Z,1.67
2022-09-29T06:06:52.809Z,1.33
2022-09-29T06:09:19.823Z,1.75
2022-09-29T06:11:46.931Z,2.97
2022-09-29T06:14:13.913Z,7.60
2022-09-29T06:16:41.745Z,8.32
2022-09-29T06:19:08.693Z,4.20
2022-09-29T06:21:37.999Z,9.75
2022-09-29T06:24:07.442Z,8.10
2022-09-29T06:26:34.938Z,7.60
2022-09-29T06:29:02.700Z,6.18
2022-09-29T06:31:31.115Z,5.57
2022-09-29T06:34:03.636Z,5.15
2022-09-29T06:37:01.355Z,5.15
2022-09-29T06:39:28.993Z,6.18
2022-09-29T06:41:56.629Z,6.22
2022-09-29T06:44:28.715Z,7.18
2022-09-29T06:46:56.207Z,6.40
2022-09-29T06:49:24.473Z,6.15
2022-09-29T06:51:51.673Z,5.60
2022-09-29T06:54:21.962Z,5.28
2022-09-29T06:56:53.751Z,5.20
2022-09-29T06:59:21.289Z,4.93
2022-09-29T07:01:51.224Z,5.07
2022-09-29T07:04:21.483Z,5.33
2022-09-29T07:06:49.240Z,4.38
2022-09-29T07:09:16.595Z,4.97
2022-09-29T07:11:48.312Z,4.03
2022-09-29T07:14:20.396Z,4.55
2022-09-29T07:16:48.676Z,3.88
2022-09-29T07:19:18.590Z,4.43
2022-09-29T07:21:49.047Z,4.00
2022-09-29T07:24:16.359Z,4.43
2022-09-29T07:26:43.669Z,3.80
2022-09-29T07:29:15.293Z,4.07
2022-09-29T07:31:50.754Z,4.05
2022-09-29T07:34:20.710Z,3.30
2022-09-29T07:36:47.744Z,3.42
2022-09-29T07:39:14.863Z,3.08
2022-09-29T07:41:42.077Z,3.15
2022-09-29T07:44:09.084Z,2.92
2022-09-29T07:46:36.019Z,2.92
2022-09-29T07:49:03.206Z,3.42
2022-09-29T07:51:30.075Z,2.42
2022-09-29T07:54:01.906Z,2.85
2022-09-29T07:56:28.796Z,3.13
2022-09-29T07:58:56.508Z,2.70
2022-09-29T08:01:23.484Z,2.95
2022-09-29T08:03:53.523Z,2.67
2022-09-29T08:06:21.310Z,2.80
2022-09-29T08:09:00.674Z,2.40
2022-09-29T08:11:32.485Z,2.40
2022-09-29T08:14:00.538Z,2.50
2022-09-29T08:16:27.606Z,2.50
2022-09-29T08:18:54.636Z,2.30
2022-09-29T08:21:21.634Z,2.22
2022-09-29T08:23:48.844Z,2.30
2022-09-29T08:26:19.796Z,2.10
2022-09-29T08:29:00.488Z,2.20
2022-09-29T08:31:31.756Z,2.00
2022-09-29T08:33:59.297Z,2.05
2022-09-29T08:36:26.585Z,2.22
2022-09-29T08:38:56.198Z,2.22
2022-09-29T08:41:37.514Z,1.88
2022-09-29T08:46:39.958Z,1.75
2022-09-29T08:49:23.954Z,1.90
2022-09-29T08:52:15.677Z,1.90
2022-09-29T08:54:49.043Z,1.70
2022-09-29T08:57:19.725Z,2.00
2022-09-29T08:59:58.766Z,1.77
2022-09-29T09:02:59.607Z,1.98
2022-09-29T09:05:52.641Z,1.60
2022-09-29T09:08:42.935Z,1.50
2022-09-29T09:11:45.985Z,1.88
2022-09-29T09:14:36.513Z,1.58
2022-09-29T09:17:34.352Z,1.40
2022-09-29T09:20:16.632Z,1.63
2022-09-29T09:23:14.736Z,1.60
2022-09-29T09:25:48.157Z,1.52
2022-09-29T09:28:23.717Z,1.60
2022-09-29T09:30:58.422Z,1.50
2022-09-29T09:34:06.362Z,1.20
2022-09-29T09:36:41.812Z,1.40
2022-09-29T09:39:20.982Z,1.15
2022-09-29T09:41:52.364Z,1.52
2022-09-29T09:44:35.099Z,1.40
2022-09-29T09:47:20.929Z,1.65
2022-09-29T09:49:54.452Z,1.35
2022-09-29T09:52:27.648Z,1.40
2022-09-29T09:54:59.976Z,1.58
2022-09-29T09:57:52.934Z,1.40
2022-09-29T10:00:44.246Z,1.17
2022-09-29T10:03:12.539Z,1.25
2022-09-29T10:05:45.633Z,1.30
2022-09-29T10:08:38.727Z,1.40
2022-09-29T10:11:27.433Z,1.20
2022-09-29T10:14:12.425Z,1.17
2022-09-29T10:16:42.793Z,1.30
2022-09-29T10:19:11.120Z,1.30
2022-09-29T10:21:44.090Z,1.20
2022-09-29T10:24:23.030Z,1.30
2022-09-29T10:26:52.089Z,1.40
2022-09-29T10:29:32.358Z,1.13
2022-09-29T10:32:05.094Z,1.40
2022-09-29T10:34:35.739Z,1.20
2022-09-29T10:37:06.422Z,1.50
2022-09-29T10:39:43.570Z,1.25
2022-09-29T10:42:34.380Z,1.42
2022-09-29T10:45:15.526Z,1.17
2022-09-29T10:47:46.983Z,1.38
2022-09-29T10:50:18.683Z,1.35
2022-09-29T10:52:52.889Z,1.35
2022-09-29T10:55:25.334Z,1.50
2022-09-29T10:57:55.228Z,1.35
2022-09-29T11:00:34.074Z,1.38
2022-09-29T11:03:05.467Z,1.17
2022-09-29T11:05:32.962Z,1.50
2022-09-29T11:08:00.396Z,1.30
2022-09-29T11:10:30.578Z,1.20
2022-09-29T11:12:59.431Z,1.33
2022-09-29T11:15:29.509Z,1.20
2022-09-29T11:17:57.205Z,1.38
2022-09-29T11:20:33.166Z,1.40
2022-09-29T11:23:24.554Z,1.40
2022-09-29T11:28:34.350Z,1.45
2022-09-29T11:31:09.155Z,1.42
2022-09-29T11:33:45.103Z,1.42
2022-09-29T11:36:29.476Z,1.70
2022-09-29T11:39:23.345Z,1.80
2022-09-29T11:42:00.350Z,1.33
2022-09-29T11:44:39.169Z,1.52
2022-09-29T11:47:43.705Z,1.42
2022-09-29T11:50:22.230Z,1.70
2022-09-29T11:53:04.638Z,1.33
2022-09-29T11:55:34.625Z,1.40
2022-09-29T11:58:17.986Z,1.45
2022-09-29T12:01:20.778Z,1.63
2022-09-29T12:04:09.106Z,1.45
2022-09-29T12:06:58.445Z,1.48
2022-09-29T12:09:25.266Z,1.50
2022-09-29T12:15:08.220Z,1.70
2022-09-29T12:17:41.878Z,1.60
2022-09-29T12:20:18.789Z,1.80
2022-09-29T12:22:48.683Z,1.40
2022-09-29T12:25:25.404Z,1.67
2022-09-29T12:27:59.034Z,1.40
2022-09-29T12:30:34.011Z,1.70
2022-09-29T12:33:25.208Z,1.60
2022-09-29T12:36:30.937Z,1.90
2022-09-29T12:39:10.363Z,1.50
2022-09-29T12:41:42.920Z,1.50
2022-09-29T12:44:21.590Z,1.60
2022-09-29T12:47:39.028Z,1.60
2022-09-29T12:50:19.071Z,1.70
2022-09-29T12:52:57.463Z,1.45
2022-09-29T12:55:53.420Z,1.42
2022-09-29T12:58:33.815Z,1.30
2022-09-29T13:01:20.227Z,1.83
2022-09-29T13:04:04.508Z,1.40
2022-09-29T13:06:49.555Z,1.75
2022-09-29T13:09:43.162Z,1.65
2022-09-29T13:12:16.165Z,1.70
2022-09-29T13:14:59.160Z,1.58
2022-09-29T13:17:48.431Z,1.60
2022-09-29T13:20:47.164Z,1.38
2022-09-29T13:23:23.120Z,1.70
2022-09-29T13:26:21.367Z,1.60
2022-09-29T13:28:54.723Z,1.73
2022-09-29T13:31:32.588Z,1.60
2022-09-29T13:34:03.319Z,1.60
2022-09-29T13:36:36.758Z,1.50
2022-09-29T13:39:23.508Z,1.60
2022-09-29T13:41:56.014Z,1.52
2022-09-29T13:44:25.223Z,1.83
2022-09-29T13:46:54.950Z,1.80
2022-09-29T13:49:22.031Z,1.75
2022-09-29T13:52:23.759Z,1.83
2022-09-29T13:54:51.008Z,1.60
2022-09-29T13:57:26.116Z,1.73
2022-09-29T13:59:56.842Z,1.50
2022-09-29T14:02:38.058Z,1.60
2022-09-29T14:07:57.134Z,1.67
2022-09-29T14:10:30.251Z,1.55
2022-09-29T14:13:06.565Z,1.73
2022-09-29T14:15:51.479Z,1.50
2022-09-29T14:18:42.144Z,1.60
2022-09-29T14:21:13.801Z,1.52
2022-09-29T14:23:46.676Z,1.60
2022-09-29T14:26:45.690Z,1.75
2022-09-29T14:29:34.576Z,1.63
2022-09-29T14:32:03.571Z,1.55
2022-09-29T14:34:34.253Z,1.67
2022-09-29T14:37:02.802Z,1.67
2022-09-29T14:39:31.689Z,1.73
2022-09-29T14:41:58.651Z,1.60
2022-09-29T14:45:00.418Z,1.75
2022-09-29T14:48:16.804Z,1.60
2022-09-29T14:51:11.416Z,1.60
2022-09-29T14:53:50.417Z,1.33
2022-09-29T14:56:36.163Z,1.60
2022-09-29T14:59:03.075Z,1.83
2022-09-29T15:01:32.149Z,1.73
2022-09-29T15:04:19.516Z,1.80
2022-09-29T15:06:51.956Z,1.73
2022-09-29T15:09:24.718Z,1.70
2022-09-29T15:11:56.835Z,1.60
2022-09-29T15:14:30.523Z,1.83
2022-09-29T15:17:12.839Z,1.77
2022-09-29T15:20:08.467Z,1.60
2022-09-29T15:23:24.059Z,1.65
2022-09-29T15:25:56.757Z,1.83
2022-09-29T15:28:38.935Z,1.85
2022-09-29T15:31:11.189Z,1.63
2022-09-29T15:33:41.640Z,1.60
2022-09-29T15:36:17.540Z,1.73
2022-09-29T15:38:44.781Z,1.60
2022-09-29T15:41:11.734Z,2.75
2022-09-29T15:43:45.443Z,4.10
2022-09-29T15:46:36.922Z,3.30
2022-09-29T15:49:23.291Z,2.60
2022-09-29T15:51:59.758Z,2.60
2022-09-29T15:54:40.857Z,2.05
2022-09-29T15:59:55.486Z,2.15
2022-09-29T16:02:30.578Z,2.70
2022-09-29T16:05:12.414Z,3.70
2022-09-29T16:08:03.522Z,3.40
2022-09-29T16:10:34.112Z,4.00
2022-09-29T16:13:19.478Z,3.30
2022-09-29T16:15:49.618Z,3.63
2022-09-29T16:18:49.590Z,3.33
2022-09-29T16:21:22.652Z,2.83
2022-09-29T16:24:08.722Z,4.00
2022-09-29T16:26:45.505Z,3.63
2022-09-29T16:29:18.705Z,4.05
2022-09-29T16:31:48.579Z,4.05
2022-09-29T16:34:35.898Z,3.88
2022-09-29T16:37:19.384Z,4.15
2022-09-29T16:39:49.163Z,4.65
2022-09-29T16:42:27.482Z,5.07
2022-09-29T16:44:56.306Z,6.20
2022-09-29T16:47:32.043Z,6.82
2022-09-29T16:50:09.298Z,6.82
2022-09-29T16:52:41.562Z,7.13
2022-09-29T16:55:21.865Z,6.73
2022-09-29T16:57:55.394Z,7.03
2022-09-29T17:00:23.349Z,6.53
2022-09-29T17:03:03.448Z,6.70
2022-09-29T17:05:30.454Z,5.80
2022-09-29T17:08:06.210Z,6.60
2022-09-29T17:10:33.355Z,5.28
2022-09-29T17:13:01.576Z,5.10
2022-09-29T17:15:30.674Z,4.93
2022-09-29T17:17:58.187Z,5.00
2022-09-29T17:20:30.596Z,4.90
2022-09-29T17:23:00.324Z,4.25
2022-09-29T17:25:27.835Z,4.10
2022-09-29T17:28:13.550Z,4.10
2022-09-29T17:30:45.574Z,4.13
2022-09-29T17:33:16.286Z,3.80
2022-09-29T17:35:51.628Z,3.70
2022-09-29T17:38:22.640Z,3.97
2022-09-29T17:40:55.150Z,3.45
2022-09-29T17:43:23.812Z,3.42
2022-09-29T17:45:54.699Z,3.28
2022-09-29T17:48:22.106Z,3.20
2022-09-29T17:50:51.162Z,3.30
2022-09-29T17:53:19.576Z,2.85
2022-09-29T17:55:52.374Z,3.17
2022-09-29T17:58:20.522Z,3.90
2022-09-29T18:00:50.443Z,3.58
2022-09-29T18:03:19.488Z,3.35
2022-09-29T18:05:49.927Z,2.80
2022-09-29T18:08:18.877Z,3.10
2022-09-29T18:10:52.932Z,3.58
2022-09-29T18:13:21.556Z,3.65
2022-09-29T18:15:48.940Z,3.10
2022-09-29T18:18:19.053Z,3.20
2022-09-29T18:20:47.645Z,3.33
2022-09-29T18:23:18.167Z,3.58
2022-09-29T18:25:48.106Z,3.47
2022-09-29T18:28:17.208Z,3.22
2022-09-29T18:30:50.511Z,2.90
2022-09-29T18:33:20.034Z,2.85
2022-09-29T18:35:53.146Z,3.08
2022-09-29T18:38:20.310Z,2.90
2022-09-29T18:40:47.817Z,3.40
2022-09-29T18:43:15.513Z,3.50
2022-09-29T18:45:43.948Z,2.80
2022-09-29T18:48:16.180Z,3.20
2022-09-29T18:50:46.188Z,3.03
2022-09-29T18:53:17.786Z,3.30
2022-09-29T18:55:50.009Z,3.60
2022-09-29T18:58:20.022Z,3.10
2022-09-29T19:00:50.897Z,3.42
2022-09-29T19:03:21.783Z,3.20
2022-09-29T19:05:49.668Z,3.30
2022-09-29T19:08:19.451Z,3.00
2022-09-29T19:10:55.805Z,3.45
2022-09-29T19:13:23.293Z,3.00
2022-09-29T19:15:52.157Z,3.03
2022-09-29T19:18:25.368Z,2.60
2022-09-29T19:20:55.656Z,2.80
2022-09-29T19:23:25.542Z,2.57
2022-09-29T19:25:56.446Z,2.80
2022-09-29T19:28:24.287Z,3.28
2022-09-29T19:30:52.797Z,3.13
2022-09-29T19:33:22.784Z,3.33
2022-09-29T19:35:56.012Z,2.65
2022-09-29T19:38:24.018Z,3.25
2022-09-29T19:40:52.229Z,3.17
2022-09-29T19:43:21.838Z,2.63
2022-09-29T19:45:50.718Z,2.90
2022-09-29T19:48:23.761Z,2.90
2022-09-29T19:51:17.542Z,2.75
2022-09-29T19:53:48.654Z,2.80
2022-09-29T19:56:24.240Z,3.20
2022-09-29T19:58:51.692Z,2.70
2022-09-29T20:01:20.375Z,2.75
2022-09-29T20:03:49.690Z,2.80
2022-09-29T20:06:17.007Z,2.83
2022-09-29T20:08:44.251Z,2.75
2022-09-29T20:11:15.163Z,2.75
2022-09-29T20:13:44.219Z,3.22
2022-09-29T20:16:12.568Z,2.95
2022-09-29T20:18:40.497Z,2.75
2022-09-29T20:21:11.406Z,3.00
2022-09-29T20:23:42.299Z,2.92
2022-09-29T20:26:09.707Z,2.85
2022-09-29T20:28:40.539Z,2.97
2022-09-29T20:31:10.381Z,3.03
2022-09-29T20:33:39.032Z,4.20
2022-09-29T20:36:06.818Z,3.95
2022-09-29T20:38:39.909Z,3.75
2022-09-29T20:41:07.903Z,3.55
2022-09-29T20:43:37.638Z,3.40
2022-09-29T20:46:08.998Z,3.25
2022-09-29T20:48:37.732Z,3.30
2022-09-29T20:51:07.196Z,2.75
2022-09-29T20:53:39.767Z,3.20
2022-09-29T20:56:09.295Z,2.78
2022-09-29T20:58:38.648Z,2.70
2022-09-29T21:01:21.840Z,3.10
2022-09-29T21:03:55.286Z,3.22
2022-09-29T21:06:26.103Z,3.10
2022-09-29T21:08:53.323Z,2.80
2022-09-29T21:11:23.077Z,2.55
2022-09-29T21:13:52.647Z,2.70
2022-09-29T21:16:25.343Z,2.70
2022-09-29T21:18:55.958Z,2.60
2022-09-29T21:21:24.558Z,2.70
2022-09-29T21:23:52.491Z,2.70
2022-09-29T21:26:24.876Z,2.90
2022-09-29T21:28:57.594Z,2.63
2022-09-29T21:31:27.393Z,2.92
2022-09-29T21:34:03.232Z,2.95
2022-09-29T21:36:32.561Z,2.45
2022-09-29T21:39:02.845Z,2.63
2022-09-29T21:41:37.442Z,2.85
2022-09-29T21:44:11.710Z,2.63
2022-09-29T21:46:40.121Z,2.58
2022-09-29T21:49:09.256Z,2.83
2022-09-29T21:51:40.056Z,2.78
2022-09-29T21:54:10.925Z,2.78
2022-09-29T21:56:40.928Z,2.70
2022-09-29T21:59:09.743Z,2.70
2022-09-29T22:01:39.965Z,2.80
2022-09-29T22:04:10.272Z,2.70
2022-09-29T22:06:38.606Z,2.25
2022-09-29T22:09:07.380Z,2.70
2022-09-29T22:11:37.017Z,2.60
2022-09-29T22:14:04.120Z,2.92
2022-09-29T22:16:33.687Z,2.50
2022-09-29T22:21:49.395Z,2.38
2022-09-29T22:24:16.248Z,2.70
2022-09-29T22:26:43.219Z,2.10
2022-09-29T22:29:10.405Z,2.47
2022-09-29T22:31:40.539Z,2.65
2022-09-29T22:34:08.473Z,2.60
2022-09-29T22:36:35.985Z,2.22
2022-09-29T22:39:05.658Z,2.20
2022-09-29T22:41:33.515Z,2.38
2022-09-29T22:44:01.223Z,2.55
2022-09-29T22:46:30.154Z,2.60
2022-09-29T22:48:58.178Z,2.42
2022-09-29T22:51:25.247Z,2.53
2022-09-29T22:53:52.247Z,2.50
2022-09-29T22:56:21.355Z,2.22
2022-09-29T22:58:49.724Z,2.13
2022-09-29T23:01:18.197Z,1.88
2022-09-29T23:03:46.208Z,2.20
2022-09-29T23:06:14.755Z,2.10
2022-09-29T23:08:42.466Z,2.40
2022-09-29T23:11:18.193Z,2.25
2022-09-29T23:13:45.600Z,1.98
2022-09-29T23:16:14.331Z,1.98
2022-09-29T23:18:45.168Z,1.90
2022-09-29T23:23:40.321Z,1.98
2022-09-29T23:26:07.216Z,2.20
2022-09-29T23:28:35.092Z,2.08
2022-09-29T23:31:06.764Z,2.10
2022-09-29T23:33:33.998Z,2.03
2022-09-29T23:36:07.077Z,2.00
2022-09-29T23:38:52.336Z,1.92
2022-09-29T23:41:22.163Z,2.35
2022-09-29T23:43:48.951Z,2.10
2022-09-29T23:46:15.884Z,2.03
2022-09-29T23:48:42.852Z,2.28
2022-09-29T23:51:09.691Z,1.95
2022-09-29T23:53:36.623Z,2.20
2022-09-29T23:56:03.880Z,1.90
2022-09-29T23:58:30.728Z,1.83
